x

East Scotia Slope (44137) Wave Buoy

12:00pm - Thu 3rd Sep 2015 All times are EDT. -4 hours from GMT.

  • Sig Wave height 3.6ft
  • Wind
    13mph, 16mph gusts
  • Sea Temp 71°f
  • Air Temp 73°f
  • Sea Pressure 1011.9mb
  • East Scotia Slope
  • East Scotia Slope

More Historic Weather Station data

Upgrade to MSW Pro to gain access to the past 30 days of data for over 8000 Wavebouys and Weather Stations around the globe.

Join Pro

Comparision Forecast

View Surf forecast
   
Thu 09/03 12:00pm 3.5ft  -  13 16 mph 1011.9mb 71f 73f
11:00am 4ft 5s 13 16 mph 1012.1mb 71f 73f
10:00am 4.5ft 4s 11 13 mph 1012mb 71f 72f
9:00am 4ft 5s 13 16 mph 1011.8mb 71f 72f
Tue 09/01 3:00pm 5ft 5s 18 20 mph 1013.4mb 72f 66f
2:00pm 4.5ft 5s 20 27 mph 1012.8mb 72f 67f
1:00pm 4.5ft 6s 18 22 mph 1012.1mb 72f 68f
12:00pm 4.5ft 6s 16 20 mph 1011.9mb 72f 68f
11:00am 5ft 5s 18 22 mph 1011.7mb 72f 69f
10:00am 5.5ft 6s 20 25 mph 1011.5mb 72f 69f
9:00am 6ft 7s 20 22 mph 1011mb 72f 69f
8:00am 6ft 6s 20 25 mph 1010.4mb 72f 70f
7:00am 6ft 6s 20 25 mph 1009.8mb 72f 71f
6:00am 6ft 7s 20 22 mph 1009.2mb 72f 71f
5:00am 6ft 7s 20 22 mph 1008.5mb 72f 71f
4:00am 5.5ft 7s 20 25 mph 1008.4mb 72f 71f
3:00am 5ft 6s 22 27 mph 1008.3mb 72f 72f
2:00am 5ft 6s 20 27 mph 1008.7mb 72f 73f
1:00am 5ft 6s 20 22 mph 1009.2mb 72f 72f
12:00am 5ft 6s 18 20 mph 1010mb 72f 72f
Mon 08/31 11:00pm 5.5ft 5s 22 25 mph 1009.9mb 72f 73f
10:00pm 5ft 5s 20 25 mph 1010.1mb 72f 73f
9:00pm 5ft 5s 20 22 mph 1010.3mb 72f 74f
8:00pm 4.5ft 5s 18 22 mph 1010.2mb 71f 74f
6:00pm 4ft 5s 18 20 mph 1010.3mb 72f 74f
5:00pm 3.5ft 5s 18 20 mph 1010.9mb 72f 74f
4:00pm 2.5ft 10s 18 20 mph 1011.5mb 72f 74f
3:00pm 2.5ft 9s 13 16 mph 1012.1mb 72f 74f
2:00pm 2.5ft 9s 13 16 mph 1012.8mb 72f 74f
1:00pm 2.5ft 10s 9 11 mph 1013.9mb 72f 73f
12:00pm 2.5ft 10s 7 11 mph 1014.4mb 72f 72f
11:00am 2.5ft 8s 4
mph
1014.8mb 72f 72f
10:00am 2.5ft 9s  -  2 mph 1015.2mb 72f 73f
9:00am 2.5ft 10s  -  mph 1015.2mb 71f 72f
8:00am 2.5ft 8s  -  mph 1015.5mb 71f 72f
7:00am 2.5ft 8s  -  4 mph 1015.8mb 71f 71f
6:00am 2.5ft 9s 4 7 mph 1015.7mb 70f 70f
5:00am 2.5ft 8s 13 18 mph 1015.7mb 71f 70f
4:00am 2.5ft 10s 4
mph
1016mb 71f 72f
3:00am 2.5ft 10s 2 4 mph 1016.3mb 71f 72f
2:00am 2.5ft 9s 7 9 mph 1016.8mb 71f 72f
1:00am 2.5ft 10s 11 13 mph 1017.1mb 71f 72f
12:00am 2.5ft 10s 11 13 mph 1017.7mb 71f 72f
Sun 08/30 11:00pm 2.5ft 9s 11 13 mph 1017.9mb 71f 72f
10:00pm 2.5ft 9s 7
mph
1018.1mb 71f 72f
9:00pm 2.5ft 9s 9
mph
1018.4mb 71f 72f
8:00pm 2.5ft 9s 4 7 mph 1018.6mb 71f 71f
7:00pm 2.5ft 10s 4 7 mph 1018.5mb 71f 72f
6:00pm 2.5ft 9s 4 9 mph 1018.4mb 71f 72f